Time;durP1;ratioP1;P1;durP2;ratioP2;P2;SDS_P1;SDS_P2;PMS_P1;PMS_P2;Temp;Humidity;BMP_temperature;BMP_pressure;BME280_temperature;BME280_humidity;BME280_pressure;Samples;Min_cycle;Max_cycle;Signal;HPM_P1;HPM_P2
2022/08/20 00:01:16;;;;;;;8.25;7.05;;;26.60;52.60;25.50;101022.00;;;;5080060;28;19981;-72
2022/08/20 00:04:02;;;;;;;9.23;6.28;;;26.60;52.90;25.50;101019.00;;;;5083923;28;20492;-72
2022/08/20 00:06:49;;;;;;;8.27;6.60;;;26.60;53.00;25.50;101020.00;;;;5082436;28;20442;-72
2022/08/20 00:09:35;;;;;;;7.55;6.75;;;26.60;53.00;25.50;101025.00;;;;5087135;28;20036;-72
2022/08/20 00:12:21;;;;;;;7.95;6.45;;;26.60;53.00;25.50;101020.00;;;;5080940;28;20401;-72
2022/08/20 00:15:07;;;;;;;8.05;7.25;;;26.60;53.10;25.50;101024.00;;;;5076059;28;20047;-72
2022/08/20 00:17:53;;;;;;;8.15;7.32;;;26.60;53.20;25.50;101028.00;;;;5091598;28;20056;-72
2022/08/20 00:20:43;;;;;;;9.65;7.43;;;26.60;53.40;25.50;101032.00;;;;5068709;28;20047;-72
2022/08/20 00:23:29;;;;;;;10.27;7.65;;;26.50;53.50;25.50;101033.00;;;;5060291;28;20032;-72
2022/08/20 00:26:15;;;;;;;10.20;8.45;;;26.60;53.60;25.50;101034.00;;;;5081721;28;20044;-72
2022/08/20 00:29:01;;;;;;;10.35;8.77;;;26.60;53.80;25.50;101039.00;;;;5073125;28;20425;-72
2022/08/20 00:31:47;;;;;;;11.05;8.52;;;26.60;53.90;25.50;101042.00;;;;5074877;28;20040;-72
2022/08/20 00:34:33;;;;;;;9.00;7.78;;;26.60;53.90;25.50;101034.00;;;;5073928;28;20059;-72
2022/08/20 00:37:19;;;;;;;9.05;7.57;;;26.50;53.80;25.50;101033.00;;;;5087256;28;20100;-72
2022/08/20 00:40:06;;;;;;;11.35;7.63;;;26.60;53.90;25.50;101022.00;;;;5071160;28;20070;-72
2022/08/20 00:42:57;;;;;;;7.50;6.78;;;26.50;53.90;25.50;101019.00;;;;5076021;28;20517;-72
2022/08/20 00:45:45;;;;;;;8.10;6.70;;;26.50;53.80;25.50;101013.00;;;;5083788;28;20032;-72
2022/08/20 00:48:32;;;;;;;9.43;7.35;;;26.50;53.80;25.50;101015.00;;;;5083493;28;20044;-72
2022/08/20 00:51:40;;;;;;;8.45;7.22;;;26.50;53.80;25.50;101025.00;;;;5069838;28;20131;-72
2022/08/20 00:54:38;;;;;;;8.00;6.75;;;26.50;53.80;25.50;101032.00;;;;5074952;28;20056;-72
2022/08/20 00:57:33;;;;;;;7.70;6.78;;;26.50;53.80;25.50;101036.00;;;;5067591;28;20048;-72
2022/08/20 01:00:30;;;;;;;7.55;6.65;;;26.50;53.70;25.50;101033.00;;;;5062934;28;20044;-72
2022/08/20 01:03:19;;;;;;;8.00;6.60;;;26.50;53.80;25.50;101037.00;;;;5073626;28;20040;-72
2022/08/20 01:06:05;;;;;;;7.68;6.43;;;26.50;53.70;25.50;101036.00;;;;5079496;28;20355;-72
2022/08/20 01:08:51;;;;;;;8.38;6.50;;;26.50;53.80;25.50;101044.00;;;;5090738;28;20160;-72
2022/08/20 01:11:37;;;;;;;9.40;6.95;;;26.50;53.70;25.50;101043.00;;;;5057063;28;20040;-72
2022/08/20 01:17:16;;;;;;;6.55;5.55;;;26.50;53.70;25.50;101041.00;;;;5066723;28;20479;-72
2022/08/20 01:20:10;;;;;;;7.03;5.80;;;26.50;53.80;25.50;101038.00;;;;5071903;28;20489;-72
2022/08/20 01:23:39;;;;;;;6.07;5.40;;;26.50;53.80;25.50;101039.00;;;;5092856;28;20093;-72
2022/08/20 01:26:35;;;;;;;7.00;5.50;;;26.50;53.70;25.50;101033.00;;;;5080199;28;20043;-72
2022/08/20 01:29:27;;;;;;;7.50;5.57;;;26.50;53.70;25.50;101041.00;;;;5074640;28;20236;-72
2022/08/20 01:32:13;;;;;;;8.73;5.15;;;26.50;53.70;25.50;101044.00;;;;5061247;28;20079;-72
2022/08/20 01:34:59;;;;;;;7.05;5.07;;;26.50;53.60;25.50;101043.00;;;;5092535;28;20120;-72
2022/08/20 01:37:45;;;;;;;5.32;4.65;;;26.50;53.60;25.50;101045.00;;;;5087140;28;20379;-72
2022/08/20 01:41:13;;;;;;;6.00;5.40;;;26.50;53.60;25.50;101042.00;;;;5069563;28;20044;-72
2022/08/20 01:43:59;;;;;;;5.85;4.93;;;26.50;53.60;25.50;101036.00;;;;5066782;28;20044;-72
2022/08/20 01:46:47;;;;;;;5.72;5.13;;;26.50;54.40;25.50;101035.00;;;;5070357;28;20055;-72
2022/08/20 01:49:34;;;;;;;;;;;26.40;53.80;25.40;101039.00;;;;5082311;28;20498;-72
2022/08/20 01:52:54;;;;;;;5.57;4.78;;;26.50;53.60;25.50;101039.00;;;;5073521;28;19969;-72
2022/08/20 01:55:40;;;;;;;7.18;5.00;;;26.50;53.70;25.50;101042.00;;;;5061600;28;20036;-72
2022/08/20 01:58:28;;;;;;;5.22;4.47;;;26.50;53.80;25.50;101036.00;;;;5050444;28;20041;-72
2022/08/20 02:01:33;;;;;;;5.93;4.95;;;26.50;53.90;25.50;101044.00;;;;5082977;28;20517;-72
2022/08/20 02:04:20;;;;;;;6.03;4.90;;;26.40;53.90;25.50;101049.00;;;;5084241;28;20144;-72
2022/08/20 02:07:07;;;;;;;4.78;4.32;;;26.40;53.80;25.50;101042.00;;;;5068923;28;20067;-72
2022/08/20 02:09:53;;;;;;;6.63;5.03;;;26.50;53.90;25.50;101050.00;;;;5076095;28;20047;-72
2022/08/20 02:12:39;;;;;;;6.55;4.57;;;26.50;54.00;25.50;101045.00;;;;5068345;28;20048;-72
2022/08/20 02:15:25;;;;;;;5.22;4.40;;;26.40;53.80;25.50;101046.00;;;;5081728;28;20044;-72
2022/08/20 02:18:14;;;;;;;5.55;3.95;;;26.40;53.80;25.50;101052.00;;;;5077960;28;20040;-72
2022/08/20 02:21:00;;;;;;;5.07;4.18;;;26.40;53.90;25.50;101063.00;;;;5071545;28;20048;-72
2022/08/20 02:23:46;;;;;;;4.70;4.10;;;26.40;53.90;25.40;101062.00;;;;5078921;28;20051;-72
2022/08/20 02:26:36;;;;;;;5.57;4.40;;;26.40;53.90;25.50;101062.00;;;;5082499;28;20036;-72
2022/08/20 02:29:22;;;;;;;6.53;4.50;;;26.40;53.90;25.50;101064.00;;;;5070867;28;20043;-72
2022/08/20 02:32:08;;;;;;;4.68;4.10;;;26.40;53.90;25.50;101065.00;;;;5077457;28;20492;-72
2022/08/20 02:34:54;;;;;;;4.35;3.95;;;26.40;53.90;25.50;101068.00;;;;5083383;28;20054;-72
2022/08/20 02:37:41;;;;;;;4.07;3.67;;;26.40;53.80;25.50;101064.00;;;;5077868;28;20036;-72
2022/08/20 02:40:28;;;;;;;4.68;4.07;;;26.40;53.80;25.50;101073.00;;;;5058164;28;20044;-72
2022/08/20 02:43:17;;;;;;;4.38;3.97;;;26.40;53.80;25.50;101069.00;;;;5063582;28;20040;-72
2022/08/20 02:46:04;;;;;;;4.05;3.65;;;26.40;53.80;25.40;101073.00;;;;5085853;28;20477;-72
2022/08/20 02:48:50;;;;;;;4.72;3.65;;;26.40;53.80;25.50;101073.00;;;;5082404;28;20497;-72
2022/08/20 02:51:36;;;;;;;4.07;3.67;;;26.40;53.80;25.50;101067.00;;;;5086970;28;20040;-72
2022/08/20 02:54:23;;;;;;;4.88;3.72;;;26.50;53.90;25.50;101070.00;;;;5077827;28;20055;-72
2022/08/20 02:57:13;;;;;;;4.05;3.30;;;26.40;53.80;25.50;101070.00;;;;5084356;28;20409;-72
2022/08/20 03:00:00;;;;;;;4.72;3.72;;;26.40;53.80;25.50;101070.00;;;;5060726;28;20454;-72
2022/08/20 03:02:47;;;;;;;4.00;3.60;;;26.40;53.80;25.50;101076.00;;;;5085921;28;20040;-72
2022/08/20 03:05:33;;;;;;;4.45;3.30;;;26.40;53.80;25.50;101079.00;;;;5087118;28;20047;-72
2022/08/20 03:08:19;;;;;;;4.45;3.17;;;26.50;53.90;25.50;101081.00;;;;5089444;28;20554;-72
2022/08/20 03:11:05;;;;;;;3.20;2.90;;;26.40;53.80;25.50;101074.00;;;;5086875;28;20551;-72
2022/08/20 03:13:51;;;;;;;3.10;2.80;;;26.40;53.80;25.50;101077.00;;;;5082225;28;20044;-72
2022/08/20 03:16:37;;;;;;;2.60;2.40;;;26.40;53.80;25.50;101073.00;;;;5090623;28;20036;-73
2022/08/20 03:19:24;;;;;;;2.35;2.08;;;26.40;53.80;25.40;101078.00;;;;5083884;28;20088;-72
2022/08/20 03:22:10;;;;;;;2.60;2.40;;;26.40;53.90;25.50;101084.00;;;;5082065;28;20363;-72
2022/08/20 03:24:56;;;;;;;2.83;2.33;;;26.40;53.90;25.50;101081.00;;;;5092240;28;20039;-72
2022/08/20 03:27:42;;;;;;;2.47;2.22;;;26.40;54.00;25.50;101076.00;;;;5068648;28;20461;-72
2022/08/20 03:30:29;;;;;;;2.42;2.20;;;26.40;54.00;25.50;101077.00;;;;5077316;28;20045;-72
2022/08/20 03:33:15;;;;;;;2.00;1.80;;;26.50;54.00;25.50;101075.00;;;;5085248;28;20040;-72
2022/08/20 03:36:01;;;;;;;3.28;2.03;;;26.40;54.00;25.50;101074.00;;;;5075388;28;20286;-72
2022/08/20 03:38:47;;;;;;;2.58;2.38;;;26.40;54.10;25.50;101069.00;;;;5091260;28;20108;-72
2022/08/20 03:41:33;;;;;;;3.13;2.10;;;26.50;54.10;25.50;101070.00;;;;5078693;28;20036;-72
2022/08/20 03:44:19;;;;;;;2.30;2.10;;;26.40;54.00;25.50;101074.00;;;;5087421;28;20047;-72
2022/08/20 03:47:08;;;;;;;3.85;2.13;;;26.40;54.00;25.50;101067.00;;;;5082963;28;20040;-72
2022/08/20 03:49:58;;;;;;;2.35;2.00;;;26.40;54.00;25.50;101065.00;;;;5076085;28;20477;-72
2022/08/20 03:52:44;;;;;;;2.10;1.73;;;26.30;53.90;25.40;101073.00;;;;5087614;28;20446;-72
2022/08/20 03:55:31;;;;;;;1.90;1.80;;;26.40;54.00;25.50;101075.00;;;;5079411;28;20047;-72
2022/08/20 03:58:18;;;;;;;2.55;2.00;;;26.50;54.00;25.40;101081.00;;;;5076233;28;20177;-72
2022/08/20 04:01:05;;;;;;;2.15;2.00;;;26.40;54.00;25.40;101083.00;;;;5086400;28;20329;-72
2022/08/20 04:03:51;;;;;;;2.50;1.75;;;26.30;53.90;25.40;101087.00;;;;5084037;28;20040;-72
2022/08/20 04:06:37;;;;;;;2.33;1.90;;;26.40;54.00;25.40;101085.00;;;;5088863;28;20121;-72
2022/08/20 04:09:23;;;;;;;1.83;1.50;;;26.40;54.10;25.40;101084.00;;;;5086462;28;20036;-72
2022/08/20 04:12:11;;;;;;;2.78;2.00;;;26.40;54.10;25.40;101085.00;;;;5082999;28;20121;-72
2022/08/20 04:14:58;;;;;;;3.65;1.98;;;26.40;54.20;25.50;101086.00;;;;5069248;28;20039;-72
2022/08/20 04:17:46;;;;;;;2.25;2.05;;;26.40;54.10;25.40;101088.00;;;;5093603;28;20044;-72
2022/08/20 04:20:34;;;;;;;2.38;1.63;;;26.50;54.30;25.40;101084.00;;;;5082368;28;20052;-72
2022/08/20 04:23:20;;;;;;;;;;;26.40;54.80;25.40;101091.00;;;;5061895;28;20040;-72
2022/08/20 04:26:06;;;;;;;1.60;1.50;;;26.40;54.00;25.40;101091.00;;;;5086686;28;19960;-72
2022/08/20 04:28:54;;;;;;;2.30;1.65;;;26.40;54.00;25.40;101096.00;;;;5082478;28;20447;-72
2022/08/20 04:31:40;;;;;;;;;;;26.30;53.90;25.40;101083.00;;;;5077411;28;20036;-72
2022/08/20 04:34:27;;;;;;;1.67;1.55;;;26.40;53.90;25.40;101095.00;;;;5084688;28;19916;-72
2022/08/20 04:37:13;;;;;;;1.80;1.70;;;26.40;53.90;25.40;101096.00;;;;5079425;28;20078;-72
2022/08/20 04:43:13;;;;;;;1.42;1.30;;;26.40;54.20;25.40;101108.00;;;;5079949;28;20184;-72
2022/08/20 04:46:01;;;;;;;1.88;1.40;;;26.30;54.10;25.40;101103.00;;;;5059795;28;20036;-72
2022/08/20 04:48:47;;;;;;;1.80;1.40;;;26.40;54.20;25.40;101110.00;;;;5085800;28;20044;-72
2022/08/20 04:51:33;;;;;;;1.20;1.10;;;26.30;54.20;25.40;101113.00;;;;5084832;28;20052;-72
2022/08/20 04:54:19;;;;;;;1.85;1.23;;;26.40;54.30;25.40;101115.00;;;;5084652;28;20047;-72
2022/08/20 04:57:05;;;;;;;2.65;1.42;;;26.30;54.20;25.40;101117.00;;;;5081738;28;20105;-72
2022/08/20 04:59:52;;;;;;;1.95;1.70;;;26.30;54.20;25.40;101114.00;;;;5089587;28;20055;-72
2022/08/20 05:02:38;;;;;;;2.88;1.65;;;26.40;54.30;25.40;101119.00;;;;5070050;28;20075;-72
2022/08/20 05:05:25;;;;;;;2.55;2.13;;;26.40;54.30;25.40;101120.00;;;;5088598;28;20101;-72
2022/08/20 05:08:12;;;;;;;2.95;1.67;;;26.40;54.40;25.40;101117.00;;;;5082583;28;20036;-72
2022/08/20 05:10:58;;;;;;;1.88;1.48;;;26.40;54.30;25.40;101113.00;;;;5085028;28;20500;-72
2022/08/20 05:13:44;;;;;;;2.03;1.85;;;26.40;54.30;25.40;101115.00;;;;5080674;28;20569;-72
2022/08/20 05:16:31;;;;;;;2.35;1.88;;;26.40;54.30;25.40;101115.00;;;;5087197;28;20040;-72
2022/08/20 05:19:17;;;;;;;2.03;1.83;;;26.40;54.30;25.40;101121.00;;;;5081301;28;20286;-72
2022/08/20 05:22:04;;;;;;;2.33;2.00;;;26.30;54.30;25.40;101125.00;;;;5078793;28;20089;-72
2022/08/20 05:24:50;;;;;;;2.15;1.95;;;26.40;54.40;25.40;101131.00;;;;5084487;28;20123;-72
2022/08/20 05:27:36;;;;;;;3.08;2.35;;;26.40;54.40;25.40;101129.00;;;;5080462;28;20089;-71
2022/08/20 05:30:22;;;;;;;3.05;1.92;;;26.30;54.30;25.40;101132.00;;;;5079333;28;20044;-72
2022/08/20 05:33:09;;;;;;;2.83;2.20;;;26.40;54.30;25.40;101132.00;;;;5077546;28;20081;-72
2022/08/20 05:35:55;;;;;;;2.58;2.03;;;26.40;54.40;25.40;101141.00;;;;5073360;28;20643;-72
2022/08/20 05:38:41;;;;;;;3.47;2.55;;;26.30;54.30;25.40;101146.00;;;;5082398;28;20047;-72
2022/08/20 05:41:28;;;;;;;3.15;2.20;;;26.40;54.40;25.40;101157.00;;;;5073087;28;20044;-72
2022/08/20 05:44:14;;;;;;;3.60;2.10;;;26.30;54.40;25.40;101148.00;;;;5083888;28;20028;-72
2022/08/20 05:47:01;;;;;;;2.55;2.30;;;26.30;54.40;25.40;101152.00;;;;5082724;28;20154;-72
2022/08/20 05:49:47;;;;;;;3.10;2.80;;;26.40;54.50;25.40;101149.00;;;;5084991;28;20102;-72
2022/08/20 05:52:34;;;;;;;4.57;2.90;;;26.30;54.30;25.40;101151.00;;;;5085649;28;20410;-72
2022/08/20 05:55:20;;;;;;;3.17;2.88;;;26.30;54.40;25.40;101142.00;;;;5085506;28;20502;-72
2022/08/20 05:58:17;;;;;;;3.60;2.87;;;26.30;54.40;25.40;101146.00;;;;5079240;28;20480;-72
2022/08/20 06:01:03;;;;;;;2.80;2.50;;;26.30;54.40;25.40;101143.00;;;;5083741;28;20624;-72
2022/08/20 06:07:05;;;;;;;2.80;2.60;;;26.30;54.40;25.40;101149.00;;;;5081192;28;20049;-72
2022/08/20 06:09:51;;;;;;;2.95;2.60;;;26.30;54.40;25.40;101153.00;;;;5071685;28;20048;-72
2022/08/20 06:12:37;;;;;;;4.05;2.97;;;26.30;54.40;25.40;101164.00;;;;5073728;28;20113;-72
2022/08/20 06:15:23;;;;;;;3.17;2.88;;;26.30;54.30;25.40;101161.00;;;;5077044;28;20382;-72
2022/08/20 06:18:09;;;;;;;3.20;2.70;;;26.30;54.40;25.40;101160.00;;;;5079301;28;20198;-72
2022/08/20 06:20:56;;;;;;;3.97;3.00;;;26.30;54.40;25.40;101163.00;;;;5080939;28;20052;-72
2022/08/20 06:23:42;;;;;;;3.53;3.13;;;26.30;54.50;25.40;101165.00;;;;5087907;28;20558;-72
2022/08/20 06:26:28;;;;;;;3.17;2.83;;;26.30;54.50;25.40;101171.00;;;;5079333;28;20055;-72
2022/08/20 06:29:14;;;;;;;4.40;3.35;;;26.30;54.50;25.40;101164.00;;;;5071877;28;20035;-72
2022/08/20 06:32:00;;;;;;;3.40;3.00;;;26.30;54.50;25.40;101171.00;;;;5086052;28;20059;-72
2022/08/20 06:34:47;;;;;;;3.78;3.10;;;26.30;54.50;25.40;101166.00;;;;5084698;28;20051;-72
2022/08/20 06:37:35;;;;;;;3.17;2.88;;;26.30;54.60;25.40;101161.00;;;;5071314;28;20511;-72
2022/08/20 06:40:24;;;;;;;3.95;3.45;;;26.30;54.50;25.40;101163.00;;;;5088447;28;20439;-72
2022/08/20 06:43:10;;;;;;;4.13;3.70;;;26.30;54.50;25.40;101162.00;;;;5089788;28;20089;-72
2022/08/20 06:45:56;;;;;;;4.65;3.72;;;26.30;54.50;25.40;101156.00;;;;5087381;28;20425;-72
2022/08/20 06:48:42;;;;;;;3.15;2.83;;;26.30;54.50;25.40;101157.00;;;;5089708;28;20154;-72
2022/08/20 06:51:29;;;;;;;4.15;3.50;;;26.30;54.50;25.40;101159.00;;;;5081756;28;20481;-72
2022/08/20 06:54:16;;;;;;;4.95;4.18;;;26.30;54.50;25.40;101156.00;;;;5072348;28;20094;-72
2022/08/20 06:57:02;;;;;;;5.70;3.93;;;26.30;54.50;25.40;101159.00;;;;5085102;28;20043;-72
2022/08/20 06:59:48;;;;;;;4.85;4.30;;;26.30;54.50;25.40;101163.00;;;;5076143;28;20516;-72
2022/08/20 07:02:35;;;;;;;6.10;4.13;;;26.40;54.50;25.40;101164.00;;;;5086301;28;20078;-72
2022/08/20 07:05:21;;;;;;;4.88;3.95;;;26.30;54.50;25.40;101169.00;;;;5082881;28;20119;-72
2022/08/20 07:08:17;;;;;;;4.85;4.07;;;26.30;54.50;25.40;101164.00;;;;5083789;28;20040;-72
2022/08/20 07:11:03;;;;;;;4.63;4.00;;;26.30;54.50;25.40;101172.00;;;;5078822;28;20397;-72
2022/08/20 07:13:49;;;;;;;5.32;4.28;;;26.30;54.50;25.40;101175.00;;;;5068849;28;20068;-72
2022/08/20 07:16:35;;;;;;;4.53;4.13;;;26.30;54.50;25.40;101173.00;;;;5079390;28;20461;-72
2022/08/20 07:19:22;;;;;;;4.88;4.38;;;26.30;54.50;25.40;101171.00;;;;5080121;28;20051;-71
2022/08/20 07:22:08;;;;;;;5.43;4.93;;;26.20;54.40;25.40;101178.00;;;;5086048;28;20043;-71
2022/08/20 07:24:54;;;;;;;5.15;4.65;;;26.30;54.50;25.40;101176.00;;;;5080434;28;20044;-72
2022/08/20 07:27:40;;;;;;;6.40;4.90;;;26.40;54.50;25.40;101190.00;;;;5080771;28;20055;-71
2022/08/20 07:33:31;;;;;;;5.28;4.47;;;26.30;54.50;25.40;101191.00;;;;5064668;28;20036;-72
2022/08/20 07:36:17;;;;;;;4.90;4.43;;;26.30;54.50;25.40;101181.00;;;;5075034;28;20040;-72
2022/08/20 07:39:05;;;;;;;5.80;5.20;;;26.30;54.60;25.40;101190.00;;;;5084427;28;20051;-71
2022/08/20 07:42:01;;;;;;;6.25;4.63;;;26.30;54.60;25.40;101191.00;;;;5072296;28;20040;-71
2022/08/20 07:44:47;;;;;;;6.63;4.70;;;26.30;54.70;25.40;101199.00;;;;5063491;28;20093;-71
2022/08/20 07:47:34;;;;;;;4.57;4.18;;;26.30;54.70;25.40;101195.00;;;;5083642;28;20051;-72
2022/08/20 07:50:24;;;;;;;4.80;4.13;;;26.30;54.70;25.40;101192.00;;;;5087604;28;20036;-71
2022/08/20 07:53:10;;;;;;;7.88;4.68;;;26.30;54.80;25.40;101186.00;;;;5076327;28;20393;-71
2022/08/20 07:55:57;;;;;;;5.68;4.57;;;26.30;54.60;25.40;101199.00;;;;5084559;28;20059;-73
2022/08/20 07:58:49;;;;;;;4.80;4.35;;;26.30;54.70;25.40;101202.00;;;;5081310;28;20363;-72
2022/08/20 08:01:35;;;;;;;4.78;4.30;;;26.30;54.50;25.40;101200.00;;;;5070598;28;20043;-73
2022/08/20 08:04:23;;;;;;;8.32;4.63;;;26.20;55.00;25.40;101200.00;;;;5081785;28;20425;-74
2022/08/20 08:07:09;;;;;;;15.30;5.40;;;26.30;54.40;25.40;101205.00;;;;5086197;28;20496;-74
2022/08/20 08:09:55;;;;;;;14.05;5.72;;;26.30;54.50;25.30;101205.00;;;;5071199;28;20062;-72
2022/08/20 08:12:44;;;;;;;10.90;4.80;;;26.30;54.60;25.30;101204.00;;;;5072070;28;20432;-72
2022/08/20 08:15:33;;;;;;;9.40;4.90;;;26.30;54.60;25.40;101213.00;;;;5059700;28;20055;-72
2022/08/20 08:18:23;;;;;;;10.95;4.57;;;26.30;54.70;25.40;101208.00;;;;5076940;28;20365;-72
2022/08/20 08:21:11;;;;;;;11.00;5.22;;;26.30;54.70;25.30;101216.00;;;;5056125;28;20576;-72
2022/08/20 08:23:57;;;;;;;13.70;5.50;;;26.40;54.60;25.30;101214.00;;;;5061005;28;20118;-73
2022/08/20 08:26:43;;;;;;;13.75;5.20;;;26.30;54.60;25.30;101205.00;;;;5086233;28;20051;-72
2022/08/20 08:29:29;;;;;;;15.18;5.47;;;26.30;54.60;25.40;101213.00;;;;5079713;28;20039;-73
2022/08/20 08:32:16;;;;;;;8.48;4.97;;;26.30;54.60;25.40;101203.00;;;;5067272;28;20052;-74
2022/08/20 08:35:04;;;;;;;14.48;5.05;;;26.30;54.50;25.30;101206.00;;;;5070113;28;20062;-71
2022/08/20 08:37:51;;;;;;;13.50;5.35;;;26.30;54.70;25.30;101210.00;;;;5084934;28;20055;-71
2022/08/20 08:40:37;;;;;;;8.52;5.15;;;26.30;54.70;25.30;101208.00;;;;5071240;28;20040;-71
2022/08/20 08:43:25;;;;;;;12.43;4.47;;;26.30;54.70;25.30;101208.00;;;;5072673;28;20110;-70
2022/08/20 08:46:11;;;;;;;7.68;4.38;;;26.40;54.80;25.30;101206.00;;;;5080197;28;20043;-70
2022/08/20 08:48:57;;;;;;;8.98;3.95;;;26.30;54.60;25.30;101202.00;;;;5075360;28;20635;-70
2022/08/20 08:51:47;;;;;;;11.35;4.63;;;26.30;54.60;25.30;101213.00;;;;5073272;28;20052;-71
2022/08/20 08:54:33;;;;;;;9.85;4.07;;;26.30;54.50;25.30;101214.00;;;;5071408;28;20083;-71
2022/08/20 08:57:20;;;;;;;12.95;4.50;;;26.30;54.60;25.30;101227.00;;;;5058384;28;20040;-71
2022/08/20 09:00:16;;;;;;;8.30;4.93;;;26.30;54.40;25.30;101231.00;;;;5072553;28;20093;-70
2022/08/20 09:03:16;;;;;;;13.75;5.32;;;26.30;54.60;25.40;101228.00;;;;5063689;28;20032;-70
2022/08/20 09:06:02;;;;;;;9.98;4.47;;;26.30;54.60;25.40;101233.00;;;;5062543;28;20035;-70
2022/08/20 09:09:29;;;;;;;7.80;4.07;;;26.30;54.50;25.30;101238.00;;;;5075941;28;20037;-70
2022/08/20 09:12:18;;;;;;;8.07;4.50;;;26.40;54.60;25.30;101239.00;;;;5076425;28;20044;-70
2022/08/20 09:15:05;;;;;;;9.07;4.05;;;26.30;54.60;25.40;101242.00;;;;5069332;28;20067;-70
2022/08/20 09:17:51;;;;;;;7.55;3.72;;;26.40;54.70;25.30;101246.00;;;;5085289;28;20042;-71
2022/08/20 09:20:37;;;;;;;6.35;3.80;;;26.40;54.70;25.40;101246.00;;;;5080993;28;20560;-71
2022/08/20 09:23:23;;;;;;;7.88;4.57;;;26.30;54.60;25.40;101243.00;;;;5069307;28;20234;-71
2022/08/20 09:26:09;;;;;;;6.20;4.00;;;26.40;54.60;25.40;101242.00;;;;5077261;28;20040;-69
2022/08/20 09:28:56;;;;;;;6.90;3.33;;;26.40;54.60;25.40;101238.00;;;;5084048;28;20078;-71
2022/08/20 09:31:42;;;;;;;6.85;3.80;;;26.40;54.70;25.30;101233.00;;;;5082561;28;20043;-82
2022/08/20 09:34:28;;;;;;;5.70;3.88;;;26.40;54.50;25.30;101239.00;;;;5051886;28;20123;-76
2022/08/20 09:37:14;;;;;;;5.07;3.53;;;26.40;54.60;25.40;101241.00;;;;5080514;28;20389;-75
2022/08/20 09:40:00;;;;;;;4.88;3.65;;;26.40;54.50;25.40;101233.00;;;;5079214;28;20048;-75
2022/08/20 09:42:46;;;;;;;6.07;3.42;;;26.40;54.50;25.40;101239.00;;;;5069413;28;20052;-75
2022/08/20 09:45:32;;;;;;;4.45;3.05;;;26.40;54.40;25.40;101226.00;;;;5054322;28;20040;-76
2022/08/20 09:48:18;;;;;;;3.10;2.80;;;26.30;54.30;25.40;101233.00;;;;5080414;28;20123;-75
2022/08/20 09:51:05;;;;;;;3.35;3.05;;;26.40;54.20;25.40;101234.00;;;;5080075;28;20091;-75
2022/08/20 09:53:51;;;;;;;4.07;2.95;;;26.40;54.10;25.40;101226.00;;;;5083308;28;20382;-75
2022/08/20 09:56:37;;;;;;;5.20;3.43;;;26.40;54.10;25.30;101227.00;;;;5070296;28;20055;-75
2022/08/20 09:59:23;;;;;;;4.20;3.03;;;26.40;54.30;25.40;101233.00;;;;5063802;28;20036;-75
2022/08/20 10:02:10;;;;;;;4.45;2.85;;;26.50;54.40;25.30;101233.00;;;;5077188;28;20036;-75
2022/08/20 10:04:56;;;;;;;4.93;2.80;;;26.40;54.20;25.40;101235.00;;;;5088289;28;20055;-75
2022/08/20 10:07:42;;;;;;;4.30;2.53;;;26.40;54.20;25.40;101233.00;;;;5088915;28;20044;-75
2022/08/20 10:10:28;;;;;;;5.57;2.97;;;26.40;54.20;25.40;101237.00;;;;5074136;28;20125;-75
2022/08/20 10:13:14;;;;;;;4.28;2.70;;;26.40;54.10;25.40;101242.00;;;;5073532;28;20285;-76
2022/08/20 10:16:00;;;;;;;5.32;2.92;;;26.40;53.90;25.40;101238.00;;;;5088539;28;20393;-76
2022/08/20 10:18:48;;;;;;;4.00;2.63;;;26.40;53.90;25.40;101246.00;;;;5083732;28;20055;-74
2022/08/20 10:21:34;;;;;;;7.30;2.67;;;26.40;53.90;25.40;101243.00;;;;5085247;28;20036;-75
2022/08/20 10:24:20;;;;;;;3.92;2.47;;;26.40;54.00;25.40;101247.00;;;;5075219;28;20489;-75
2022/08/20 10:27:06;;;;;;;6.13;2.65;;;26.50;54.10;25.40;101244.00;;;;5088661;28;20494;-77
2022/08/20 10:29:52;;;;;;;3.35;3.00;;;26.40;53.90;25.40;101251.00;;;;5087816;28;20036;-74
2022/08/20 10:32:38;;;;;;;5.68;2.80;;;26.40;53.90;25.40;101248.00;;;;5083685;28;20052;-73
2022/08/20 10:35:24;;;;;;;4.97;2.83;;;26.40;53.70;25.40;101241.00;;;;5080075;28;20135;-73
2022/08/20 10:38:10;;;;;;;4.60;2.70;;;26.40;53.70;25.40;101243.00;;;;5072652;28;20040;-73
2022/08/20 10:40:56;;;;;;;3.67;2.30;;;26.40;54.40;25.40;101241.00;;;;5086810;28;20044;-72
2022/08/20 10:43:42;;;;;;;4.90;2.50;;;26.40;53.70;25.40;101251.00;;;;5088057;28;20405;-72
2022/08/20 10:46:29;;;;;;;2.90;2.40;;;26.40;53.60;25.40;101249.00;;;;5085524;28;20032;-72
2022/08/20 10:49:15;;;;;;;3.10;2.33;;;26.40;53.70;25.40;101250.00;;;;5073473;28;20458;-72
2022/08/20 10:52:01;;;;;;;4.97;2.70;;;26.40;53.60;25.40;101244.00;;;;5092365;28;20054;-72
2022/08/20 10:54:47;;;;;;;5.65;2.33;;;26.40;53.60;25.40;101239.00;;;;5082215;28;20056;-72
2022/08/20 10:57:33;;;;;;;3.70;2.58;;;26.50;53.60;25.40;101242.00;;;;5074715;28;20036;-72
2022/08/20 11:00:19;;;;;;;3.22;2.65;;;26.50;53.50;25.40;101249.00;;;;5083296;28;20529;-72
2022/08/20 11:03:05;;;;;;;2.63;2.22;;;26.50;53.50;25.40;101250.00;;;;5087525;28;20232;-72
2022/08/20 11:05:51;;;;;;;3.45;2.30;;;26.50;53.40;25.40;101249.00;;;;5086637;28;20048;-72
2022/08/20 11:08:37;;;;;;;4.05;2.63;;;26.50;53.40;25.40;101250.00;;;;5076215;28;20081;-72
2022/08/20 11:11:23;;;;;;;3.58;2.20;;;26.50;53.40;25.40;101240.00;;;;5083075;28;20473;-72
2022/08/20 11:14:09;;;;;;;2.95;2.30;;;26.50;53.40;25.40;101242.00;;;;5083545;28;20469;-72
2022/08/20 11:16:55;;;;;;;2.28;1.88;;;26.50;53.40;25.40;101245.00;;;;5090160;28;20043;-72
2022/08/20 11:19:42;;;;;;;4.15;2.40;;;26.40;53.40;25.40;101245.00;;;;5086418;28;20054;-72
2022/08/20 11:22:28;;;;;;;3.30;2.25;;;26.50;53.40;25.40;101243.00;;;;5069146;28;20262;-72
2022/08/20 11:25:14;;;;;;;2.58;1.80;;;26.60;53.40;25.40;101254.00;;;;5090473;28;20036;-72
2022/08/20 11:28:01;;;;;;;4.22;1.95;;;26.60;53.40;25.40;101255.00;;;;5081458;28;20469;-72
2022/08/20 11:30:48;;;;;;;3.28;2.15;;;26.50;53.20;25.40;101251.00;;;;5082034;28;20465;-72
2022/08/20 11:33:35;;;;;;;4.22;1.88;;;26.40;53.10;25.40;101249.00;;;;5081594;28;20474;-72
2022/08/20 11:36:25;;;;;;;3.25;1.65;;;26.60;53.20;25.40;101250.00;;;;5082848;28;20036;-72
2022/08/20 11:39:11;;;;;;;4.07;1.85;;;26.60;53.30;25.40;101254.00;;;;5083120;28;20100;-71
2022/08/20 11:41:57;;;;;;;2.75;1.60;;;26.60;53.30;25.40;101258.00;;;;5053918;28;20055;-71
2022/08/20 11:44:43;;;;;;;3.72;1.90;;;26.60;53.10;25.40;101257.00;;;;5087793;28;20481;-71
2022/08/20 11:47:29;;;;;;;4.78;2.00;;;26.60;53.10;25.40;101264.00;;;;5066754;28;20036;-71
2022/08/20 11:50:17;;;;;;;2.20;2.00;;;26.60;53.10;25.40;101267.00;;;;5066787;28;20036;-71
2022/08/20 11:53:03;;;;;;;4.20;1.92;;;26.60;53.20;25.40;101266.00;;;;5070096;28;20437;-71
2022/08/20 11:55:50;;;;;;;2.83;2.03;;;26.60;53.20;25.40;101268.00;;;;5084892;28;20036;-71
2022/08/20 11:58:36;;;;;;;2.42;1.52;;;26.60;53.20;25.40;101270.00;;;;5076253;28;20083;-71
2022/08/20 12:01:22;;;;;;;2.38;1.38;;;26.50;53.10;25.40;101267.00;;;;5084990;28;20470;-72
2022/08/20 12:04:08;;;;;;;2.40;1.50;;;26.60;53.10;25.40;101269.00;;;;5082765;28;20044;-72
2022/08/20 12:06:54;;;;;;;2.63;1.70;;;26.60;53.20;25.40;101269.00;;;;5083326;28;20048;-71
2022/08/20 12:09:40;;;;;;;4.03;2.03;;;26.50;53.10;25.40;101267.00;;;;5088864;28;20035;-71
2022/08/20 12:12:26;;;;;;;3.13;1.60;;;26.60;53.30;25.40;101266.00;;;;5064440;28;20054;-71
2022/08/20 12:15:12;;;;;;;3.60;2.03;;;26.60;53.10;25.40;101266.00;;;;5082202;28;20044;-71
2022/08/20 12:17:58;;;;;;;2.53;1.65;;;26.50;53.10;25.40;101261.00;;;;5070385;28;20068;-71
2022/08/20 12:20:44;;;;;;;2.03;1.38;;;26.60;53.20;25.40;101265.00;;;;5082481;28;20457;-71
2022/08/20 12:23:30;;;;;;;3.97;1.52;;;26.50;53.20;25.40;101266.00;;;;5069374;28;20470;-71
2022/08/20 12:26:17;;;;;;;2.83;1.42;;;26.50;53.10;25.40;101265.00;;;;5081830;28;20121;-71
2022/08/20 12:29:03;;;;;;;1.60;1.35;;;26.50;53.00;25.40;101269.00;;;;5084776;28;20405;-71